• Join FlightAware (Why Join?)
  • Login
  • US Flag 
12:55AM EDT


 

Airport Tracker/Info


-or-


 

Live Flight TrackerFlight Track Log ✈ OPT332 ✈ 10-Sep-2013 ✈ KHND - KCMA

Flight Track Log - Related Links

Times and Time Zones

All times are in EDT time to prevent confusion due to time zone crossing. See the OPT332 flight status page for this flight to view local times or setup timezone preferences in your user account.

Time Position Orientation Groundspeed Altitude Reporting Facility
EDT Latitude Longitude Course Direction KTS MPH feet Rate Location/Type
02:19PM 35.9317 -115.1431 193° South 175 201 5,800  Level Los Angeles Center
02:20PM 35.8739 -115.1817 208° Southwest 228 262 9,200 3,240 Climbing Los Angeles Center
02:21PM 35.8014 -115.2206 204° Southwest 273 314 12,500 3,240 Climbing Los Angeles Center
02:22PM 35.7222 -115.2619 203° Southwest 300 345 16,000 3,480 Climbing Los Angeles Center
02:23PM 35.6414 -115.3403 218° Southwest 309 356 19,800 2,880 Climbing Los Angeles Center
02:24PM 35.5800 -115.4208 227° Southwest 318 366 22,000 1,020 Climbing Los Angeles Center
02:25PM 35.5133 -115.5122 228° Southwest 353 406 22,000  Level Los Angeles Center
02:26PM 35.4397 -115.6122 228° Southwest 369 425 22,000  Level Los Angeles Center
02:27PM 35.3703 -115.7044 227° Southwest 368 423 22,000  Level Los Angeles Center
02:28PM 35.3014 -115.7972 228° Southwest 369 425 22,000  Level Los Angeles Center
02:30PM 35.2102 -115.8951 227° Southwest  Level FlightAware Approximate
02:30PM 35.1478 -116.0014 227° Southwest 372 428 22,000  Level Los Angeles Center
02:31PM 35.0775 -116.0936 227° Southwest 371 427 22,000  Level Los Angeles Center
02:32PM 34.9939 -116.2014 227° Southwest 369 425 22,000  Level Los Angeles Center
02:33PM 34.9317 -116.2861 228° Southwest 350 403 22,000  Level Los Angeles Center
02:35PM 34.8636 -116.3756 227° Southwest 354 407 22,000 -540 Level Los Angeles Center
02:36PM 34.7975 -116.4697 229° Southwest 363 418 20,900 -960 Descending Los Angeles Center
02:37PM 34.7861 -116.5850 263° West 346 398 20,100 -900 Descending Los Angeles Center
02:38PM 34.7714 -116.7208 263° West 339 390 19,100 -1,260 Descending Los Angeles Center
02:39PM 34.7608 -116.8342 264° West 338 389 17,600 -1,500 Descending Los Angeles Center
02:40PM 34.7489 -116.9442 263° West 331 381 16,100 -1,500 Descending Los Angeles Center
02:41PM 34.7369 -117.0536 262° West 329 379 14,600 -1,500 Descending Los Angeles Center
02:42PM 34.7258 -117.1578 263° West 322 371 13,100 -1,260 Descending Los Angeles Center
02:43PM 34.7158 -117.2603 263° West 313 360 12,000 -540 Descending Los Angeles Center
02:44PM 34.7061 -117.3592 263° West 302 348 12,000  Level Los Angeles Center
02:45PM 34.6922 -117.4858 262° West 306 352 12,000  Level Los Angeles Center
02:46PM 34.6817 -117.5978 263° West 323 372 12,000  Level Los Angeles Center
02:47PM 34.6694 -117.7128 263° West 338 389 12,000  Level Los Angeles Center
02:48PM 34.6575 -117.8250 263° West 335 386 12,000  Level Los Angeles Center
02:49PM 34.6456 -117.9397 263° West 340 391 12,000 -300 Level Los Angeles Center
02:50PM 34.6333 -118.0525 263° West 338 389 11,400 -1,200 Descending Los Angeles Center
02:51PM 34.5997 -118.1586 249° West 309 356 9,600 -1,620 Descending Los Angeles Center
02:52PM 34.5703 -118.2478 248° West 290 334 8,100 -780 Descending Los Angeles Center
02:53PM 34.5397 -118.3389 248° West 294 338 8,000 -60 Descending Los Angeles Center
02:54PM 34.5022 -118.4497 248° West 298 343 8,000 -480 Level Los Angeles Center
02:55PM 34.4725 -118.5389 248° West 290 334 7,100 -660 Descending Los Angeles Center
02:56PM 34.4436 -118.6242 248° West 279 321 6,700 -540 Descending Los Angeles Center
02:57PM 34.4108 -118.7231 248° West 282 325 6,100 -600 Descending Los Angeles Center
02:57PM 34.4139 -118.7119 72° East 281 323 6,100 -180 Level Los Angeles Center
02:58PM 34.3900 -118.7844 248° West 281 323 6,000 -120 Descending Los Angeles Center
02:58PM 34.3783 -118.8142 245° Southwest 278 320 6,000  Level Los Angeles Center
02:59PM 34.3586 -118.8469 234° Southwest 235 270 6,000  Level Los Angeles Center
02:59PM 34.3503 -118.8628 237° Southwest 230 265 6,000  Level Los Angeles Center
03:00PM 34.3197 -118.9144 234° Southwest 213 245 6,000  Level Los Angeles Center
03:01PM 34.3083 -118.9328 233° Southwest 212 244 6,000 -600 Level Los Angeles Center
03:01PM 34.2903 -118.9656 236° Southwest 169 194 5,400 -1,560 Descending Los Angeles Center
03:02PM 34.2744 -118.9908 233° Southwest 187 215 4,400 -1,680 Descending Los Angeles Center
03:02PM 34.2642 -119.0131 241° Southwest 167 192 3,700 -1,500 Descending Los Angeles Center
03:03PM 34.2525 -119.0392 242° Southwest 177 204 2,900 -1,440 Descending Los Angeles Center
03:03PM 34.2411 -119.0650 242° Southwest 170 196 2,300 -720 Descending Los Angeles Center
03:04PM 34.2258 -119.0956 239° Southwest 174 200 2,200 -720 Descending Los Angeles Center
03:04PM 34.2092 -119.0961 182° South 152 175 1,600 -900 Descending Los Angeles Center
03:05PM 34.1853 -119.0672 135° Southeast 136 157 1,100 -480 Descending Los Angeles Center
03:06PM 34.2106 -119.0539 24° Northeast 135 155 700 -480 Descending Los Angeles Center
03:08PM 34.2000 -119.0833 320° Northwest  Level FlightAware Approximate
03:15PM 34.2137 -119.0944 320° Northwest  Level Estimated